createdAt,value
2023-04-19T00:02:23.967Z,2.67
2023-04-19T00:04:51.067Z,3.10
2023-04-19T00:07:18.648Z,2.77
2023-04-19T00:09:45.524Z,3.03
2023-04-19T00:12:12.347Z,2.77
2023-04-19T00:17:05.860Z,2.90
2023-04-19T00:19:32.947Z,3.27
2023-04-19T00:21:59.698Z,3.07
2023-04-19T00:27:02.344Z,2.90
2023-04-19T00:29:29.107Z,3.43
2023-04-19T00:31:55.861Z,2.63
2023-04-19T00:34:22.614Z,2.97
2023-04-19T00:41:42.793Z,3.00
2023-04-19T00:44:09.722Z,3.30
2023-04-19T00:46:38.102Z,2.80
2023-04-19T00:49:05.045Z,2.70
2023-04-19T00:51:31.876Z,2.93
2023-04-19T00:53:59.124Z,2.67
2023-04-19T00:56:27.357Z,2.93
2023-04-19T00:58:54.412Z,2.80
2023-04-19T01:01:21.130Z,2.70
2023-04-19T01:03:48.291Z,3.30
2023-04-19T01:06:15.383Z,2.57
2023-04-19T01:08:42.106Z,3.07
2023-04-19T01:11:08.946Z,3.40
2023-04-19T01:13:35.779Z,2.93
2023-04-19T01:16:02.650Z,2.67
2023-04-19T01:18:37.394Z,2.80
2023-04-19T01:21:04.877Z,2.60
2023-04-19T01:25:58.247Z,2.93
2023-04-19T01:35:48.836Z,3.00
2023-04-19T01:38:16.538Z,2.83
2023-04-19T01:40:43.781Z,2.93
2023-04-19T01:43:13.396Z,2.70
2023-04-19T01:45:40.286Z,2.70
2023-04-19T01:48:07.451Z,2.43
2023-04-19T01:50:34.291Z,3.00
2023-04-19T01:53:01.261Z,3.10
2023-04-19T01:55:28.814Z,2.60
2023-04-19T02:00:23.006Z,2.80
2023-04-19T02:05:16.545Z,3.17
2023-04-19T02:07:43.297Z,2.50
2023-04-19T02:10:13.300Z,3.20
2023-04-19T02:12:41.316Z,2.90
2023-04-19T02:15:08.438Z,2.90
2023-04-19T02:17:35.896Z,2.73
2023-04-19T02:22:31.156Z,2.67
2023-04-19T02:24:57.826Z,2.57
2023-04-19T02:27:24.574Z,2.70
2023-04-19T02:29:51.585Z,2.20
2023-04-19T02:32:18.423Z,2.90
2023-04-19T02:34:45.094Z,2.63
2023-04-19T02:37:11.708Z,2.50
2023-04-19T02:39:38.889Z,2.63
2023-04-19T02:42:05.803Z,2.90
2023-04-19T02:44:32.438Z,2.70
2023-04-19T02:47:02.205Z,2.90
2023-04-19T02:51:59.796Z,2.60
2023-04-19T02:54:26.740Z,2.87
2023-04-19T02:56:53.525Z,3.00
2023-04-19T02:59:20.279Z,3.07
2023-04-19T03:01:47.238Z,2.63
2023-04-19T03:04:14.316Z,2.40
2023-04-19T03:06:42.118Z,2.70
2023-04-19T03:09:09.050Z,2.80
2023-04-19T03:11:36.922Z,2.70
2023-04-19T03:14:03.695Z,2.50
2023-04-19T03:16:30.467Z,2.67
2023-04-19T03:18:57.161Z,2.73
2023-04-19T03:21:27.229Z,2.17
2023-04-19T03:23:55.343Z,2.27
2023-04-19T03:33:44.698Z,2.27
2023-04-19T03:36:11.952Z,2.20
2023-04-19T03:38:38.902Z,2.63
2023-04-19T03:41:05.752Z,2.30
2023-04-19T03:43:32.526Z,2.87
2023-04-19T03:45:59.149Z,2.47
2023-04-19T03:48:25.924Z,2.67
2023-04-19T03:50:52.568Z,2.63
2023-04-19T03:53:19.662Z,2.23
2023-04-19T03:55:46.325Z,2.53
2023-04-19T03:58:12.959Z,2.37
2023-04-19T04:00:39.649Z,2.40
2023-04-19T04:03:06.574Z,2.83
2023-04-19T04:05:35.290Z,2.83
2023-04-19T04:08:02.580Z,2.47
2023-04-19T04:10:29.308Z,2.40
2023-04-19T04:12:56.081Z,2.40
2023-04-19T04:25:10.460Z,2.30
2023-04-19T04:27:37.147Z,2.33
2023-04-19T04:30:04.890Z,2.60
2023-04-19T04:32:35.924Z,2.17
2023-04-19T04:35:03.902Z,2.53
2023-04-19T04:37:34.060Z,2.30
2023-04-19T04:40:01.668Z,2.40
2023-04-19T04:42:31.427Z,2.57
2023-04-19T04:44:58.297Z,2.40
2023-04-19T04:47:24.963Z,2.30
2023-04-19T04:49:52.970Z,2.80
2023-04-19T04:52:19.859Z,2.30
2023-04-19T04:54:46.607Z,2.57
2023-04-19T04:57:13.425Z,2.40
2023-04-19T04:59:40.457Z,2.20
2023-04-19T05:02:07.324Z,2.50
2023-04-19T05:04:34.121Z,2.40
2023-04-19T05:07:01.118Z,2.13
2023-04-19T05:09:27.824Z,2.30
2023-04-19T05:11:58.809Z,2.53
2023-04-19T05:16:57.283Z,2.30
2023-04-19T05:19:24.335Z,2.77
2023-04-19T05:21:51.478Z,2.30
2023-04-19T05:24:18.730Z,2.20
2023-04-19T05:29:12.592Z,2.20
2023-04-19T05:39:31.504Z,2.40
2023-04-19T05:42:07.555Z,2.37
2023-04-19T05:47:01.290Z,2.20
2023-04-19T05:49:28.050Z,2.17
2023-04-19T05:51:55.707Z,2.67
2023-04-19T05:54:22.914Z,2.63
2023-04-19T05:56:49.691Z,2.27
2023-04-19T06:04:09.891Z,2.27
2023-04-19T06:06:38.229Z,1.67
2023-04-19T06:24:11.698Z,2.27
2023-04-19T06:26:38.612Z,2.47
2023-04-19T06:31:33.182Z,2.37
2023-04-19T06:36:27.641Z,2.20
2023-04-19T06:38:54.387Z,2.07
2023-04-19T06:41:21.179Z,2.20
2023-04-19T06:43:48.027Z,1.83
2023-04-19T06:46:15.905Z,2.13
2023-04-19T06:48:42.821Z,2.10
2023-04-19T06:51:09.731Z,2.57
2023-04-19T06:53:37.009Z,2.40
2023-04-19T06:56:05.038Z,2.50
2023-04-19T06:58:34.507Z,2.43
2023-04-19T07:01:03.708Z,2.60
2023-04-19T07:18:17.280Z,2.17
2023-04-19T07:20:46.729Z,2.40
2023-04-19T07:25:40.121Z,2.10
2023-04-19T07:28:06.861Z,2.63
2023-04-19T07:30:35.594Z,2.50
2023-04-19T07:33:04.434Z,2.40
2023-04-19T07:35:31.312Z,2.33
2023-04-19T07:37:58.053Z,1.80
2023-04-19T07:43:01.026Z,2.23
2023-04-19T07:45:27.552Z,2.17
2023-04-19T07:50:26.917Z,2.40
2023-04-19T07:52:53.739Z,2.00
2023-04-19T07:55:21.075Z,2.07
2023-04-19T07:57:48.969Z,2.63
2023-04-19T08:00:16.609Z,2.10
2023-04-19T08:02:45.187Z,2.10
2023-04-19T08:05:13.453Z,2.23
2023-04-19T08:07:40.424Z,2.10
2023-04-19T08:10:07.643Z,1.67
2023-04-19T08:12:40.580Z,2.10
2023-04-19T08:15:32.768Z,2.50
2023-04-19T08:17:56.346Z,2.20
2023-04-19T08:20:23.167Z,2.43
2023-04-19T08:22:49.809Z,2.10
2023-04-19T08:25:16.476Z,2.30
2023-04-19T08:27:43.024Z,2.10
2023-04-19T08:32:42.246Z,2.30
2023-04-19T08:35:09.495Z,2.20
2023-04-19T08:37:36.069Z,2.80
2023-04-19T08:40:03.743Z,2.17
2023-04-19T08:42:36.468Z,2.17
2023-04-19T08:47:51.931Z,2.17
2023-04-19T08:50:32.360Z,2.20
2023-04-19T08:53:12.291Z,2.60
2023-04-19T08:56:06.751Z,2.40
2023-04-19T09:01:05.808Z,2.43
2023-04-19T09:03:38.555Z,2.53
2023-04-19T09:06:12.004Z,2.20
2023-04-19T09:08:39.980Z,2.53
2023-04-19T09:11:07.104Z,2.00
2023-04-19T09:16:23.573Z,2.10
2023-04-19T09:19:02.559Z,2.27
2023-04-19T09:29:26.797Z,2.07
2023-04-19T09:31:58.797Z,1.83
2023-04-19T09:34:25.766Z,2.37
2023-04-19T09:37:00.602Z,2.00
2023-04-19T09:39:38.477Z,2.00
2023-04-19T09:42:05.209Z,2.20
2023-04-19T09:45:12.649Z,2.27
2023-04-19T09:47:29.763Z,2.10
2023-04-19T09:50:21.720Z,2.40
2023-04-19T09:52:50.799Z,2.63
2023-04-19T09:55:26.735Z,2.53
2023-04-19T09:57:54.090Z,2.50
2023-04-19T10:02:57.941Z,2.33
2023-04-19T10:05:25.658Z,2.40
2023-04-19T10:10:40.432Z,1.80
2023-04-19T10:13:19.873Z,2.00
2023-04-19T10:15:53.967Z,2.40
2023-04-19T10:21:02.323Z,2.23
2023-04-19T10:23:29.626Z,2.27
2023-04-19T10:25:58.468Z,2.23
2023-04-19T10:28:27.782Z,2.47
2023-04-19T10:31:05.108Z,2.43
2023-04-19T10:36:15.426Z,2.40
2023-04-19T10:43:58.026Z,2.50
2023-04-19T10:46:25.858Z,2.37
2023-04-19T10:59:44.236Z,3.10
2023-04-19T11:02:22.944Z,3.63
2023-04-19T11:04:58.407Z,2.67
2023-04-19T11:07:25.389Z,2.90
2023-04-19T11:09:52.671Z,2.40
2023-04-19T11:12:20.850Z,2.80
2023-04-19T11:17:31.685Z,2.70
2023-04-19T11:20:10.124Z,2.50
2023-04-19T11:22:41.790Z,2.73
2023-04-19T11:25:14.287Z,2.93
2023-04-19T11:27:42.821Z,2.67
2023-04-19T11:30:12.442Z,3.07
2023-04-19T11:32:48.993Z,2.80
2023-04-19T11:35:19.975Z,2.90
2023-04-19T11:40:20.106Z,2.93
2023-04-19T11:42:47.385Z,2.67
2023-04-19T11:45:29.782Z,2.60
2023-04-19T11:47:59.354Z,2.27
2023-04-19T11:50:45.609Z,2.00
2023-04-19T11:53:32.610Z,2.57
2023-04-19T11:56:07.567Z,2.73
2023-04-19T11:58:50.084Z,2.87
2023-04-19T12:01:19.701Z,2.53
2023-04-19T12:06:33.955Z,2.00
2023-04-19T12:09:00.510Z,2.40
2023-04-19T12:17:11.111Z,2.83
2023-04-19T12:19:43.045Z,2.67
2023-04-19T12:22:11.893Z,2.67
2023-04-19T12:24:39.732Z,2.67
2023-04-19T12:27:06.953Z,2.43
2023-04-19T12:29:34.543Z,2.33
2023-04-19T12:32:01.842Z,2.50
2023-04-19T12:34:28.681Z,2.70
2023-04-19T12:36:55.993Z,2.67
2023-04-19T12:39:23.334Z,2.70
2023-04-19T12:44:21.804Z,2.73
2023-04-19T12:46:48.483Z,2.87
2023-04-19T12:49:17.644Z,2.70
2023-04-19T12:51:44.429Z,2.70
2023-04-19T12:54:11.042Z,2.80
2023-04-19T12:56:37.659Z,2.70
2023-04-19T12:59:04.220Z,2.90
2023-04-19T13:01:32.302Z,2.60
2023-04-19T13:03:59.738Z,2.73
2023-04-19T13:06:27.577Z,2.00
2023-04-19T13:08:55.047Z,3.10
2023-04-19T13:11:23.490Z,2.80
2023-04-19T13:13:51.493Z,2.97
2023-04-19T13:18:52.200Z,2.83
2023-04-19T13:21:19.009Z,3.00
2023-04-19T13:26:17.108Z,2.97
2023-04-19T13:36:18.833Z,2.53
2023-04-19T13:43:48.745Z,2.57
2023-04-19T13:46:15.438Z,2.73
2023-04-19T13:53:45.106Z,2.40
2023-04-19T13:56:12.081Z,2.77
2023-04-19T13:58:38.737Z,2.40
2023-04-19T14:01:05.676Z,2.50
2023-04-19T14:03:32.650Z,3.10
2023-04-19T14:05:59.434Z,2.60
2023-04-19T14:08:26.130Z,2.30
2023-04-19T14:10:52.817Z,2.47
2023-04-19T14:13:19.562Z,2.73
2023-04-19T14:18:18.061Z,2.80
2023-04-19T14:20:44.744Z,2.40
2023-04-19T14:23:11.316Z,2.80
2023-04-19T14:30:41.517Z,2.83
2023-04-19T14:50:53.171Z,2.70
2023-04-19T14:55:51.267Z,2.53
2023-04-19T14:58:17.808Z,2.77
2023-04-19T15:00:44.469Z,2.40
2023-04-19T15:03:11.356Z,2.83
2023-04-19T15:05:38.214Z,2.40
2023-04-19T15:08:04.955Z,2.30
2023-04-19T15:10:31.575Z,2.47
2023-04-19T15:12:58.193Z,2.67
2023-04-19T15:15:24.902Z,2.50
2023-04-19T15:17:51.673Z,2.70
2023-04-19T15:20:18.306Z,2.50
2023-04-19T15:22:44.972Z,2.70
2023-04-19T15:25:11.819Z,2.03
2023-04-19T15:27:38.356Z,2.47
2023-04-19T15:30:06.187Z,2.20
2023-04-19T15:32:34.184Z,2.50
2023-04-19T15:35:00.764Z,2.37
2023-04-19T15:37:27.535Z,2.40
2023-04-19T15:39:54.199Z,2.43
2023-04-19T15:42:20.723Z,2.80
2023-04-19T15:44:47.263Z,2.50
2023-04-19T15:47:13.784Z,2.10
2023-04-19T15:49:40.562Z,3.10
2023-04-19T15:52:08.846Z,2.47
2023-04-19T15:54:37.560Z,2.60
2023-04-19T15:57:04.104Z,2.40
2023-04-19T15:59:31.511Z,2.57
2023-04-19T16:01:58.262Z,2.50
2023-04-19T16:04:25.683Z,2.33
2023-04-19T16:06:52.572Z,2.60
2023-04-19T16:09:19.370Z,2.30
2023-04-19T16:24:24.189Z,2.40
2023-04-19T16:29:22.139Z,2.30
2023-04-19T16:31:51.300Z,2.50
2023-04-19T16:34:19.688Z,2.50
2023-04-19T16:36:46.508Z,2.20
2023-04-19T16:39:13.299Z,2.70
2023-04-19T16:41:39.914Z,2.20
2023-04-19T16:44:06.480Z,2.97
2023-04-19T16:54:07.518Z,3.70
2023-04-19T16:59:05.551Z,3.10
2023-04-19T17:01:32.140Z,3.60
2023-04-19T17:03:58.950Z,3.00
2023-04-19T17:06:26.406Z,3.67
2023-04-19T17:08:52.956Z,2.83
2023-04-19T17:11:19.555Z,3.90
2023-04-19T17:18:50.229Z,3.93
2023-04-19T17:21:16.845Z,3.47
2023-04-19T17:23:45.579Z,2.97
2023-04-19T17:26:12.307Z,2.83
2023-04-19T17:28:39.514Z,2.90
2023-04-19T17:31:06.703Z,3.00
2023-04-19T17:41:15.894Z,3.17
2023-04-19T17:43:43.515Z,2.93
2023-04-19T17:46:11.225Z,3.33
2023-04-19T17:48:38.093Z,3.20
2023-04-19T17:51:05.069Z,3.20
2023-04-19T17:56:04.972Z,3.20
2023-04-19T17:58:31.740Z,3.37
2023-04-19T18:00:58.390Z,3.50
2023-04-19T18:03:25.331Z,3.63
2023-04-19T18:05:52.606Z,3.30
2023-04-19T18:08:19.244Z,3.23
2023-04-19T18:10:45.970Z,4.00
2023-04-19T18:13:12.583Z,3.90
2023-04-19T18:15:39.203Z,4.23
2023-04-19T18:18:05.957Z,5.77
2023-04-19T18:23:04.620Z,5.70
2023-04-19T18:25:31.212Z,5.60
2023-04-19T18:27:57.876Z,6.17
2023-04-19T18:30:24.417Z,6.83
2023-04-19T18:37:54.080Z,7.00
2023-04-19T18:40:20.742Z,7.87
2023-04-19T18:42:47.409Z,7.30
2023-04-19T18:45:14.393Z,7.97
2023-04-19T18:47:41.313Z,9.27
2023-04-19T18:50:08.694Z,7.93
2023-04-19T18:52:38.702Z,9.07
2023-04-19T18:55:06.306Z,8.80
2023-04-19T18:57:34.951Z,9.03
2023-04-19T19:00:05.114Z,8.87
2023-04-19T19:02:34.026Z,7.90
2023-04-19T19:05:02.379Z,9.43
2023-04-19T19:07:36.647Z,8.73
2023-04-19T19:10:17.011Z,7.93
2023-04-19T19:12:45.759Z,7.80
2023-04-19T19:15:13.183Z,8.10
2023-04-19T19:22:43.241Z,7.97
2023-04-19T19:25:11.625Z,8.07
2023-04-19T19:27:38.827Z,7.97
2023-04-19T19:30:07.849Z,7.73
2023-04-19T19:32:34.740Z,7.63
2023-04-19T19:35:06.418Z,7.23
2023-04-19T19:37:36.386Z,7.77
2023-04-19T19:42:39.270Z,7.23
2023-04-19T19:45:09.709Z,7.63
2023-04-19T19:47:37.246Z,7.37
2023-04-19T19:52:37.200Z,6.73
2023-04-19T19:55:03.964Z,7.90
2023-04-19T19:58:18.736Z,6.77
2023-04-19T20:00:40.007Z,7.10
2023-04-19T20:03:06.685Z,7.27
2023-04-19T20:05:34.011Z,6.27
2023-04-19T20:08:12.520Z,6.60
2023-04-19T20:10:41.511Z,6.83
2023-04-19T20:13:08.250Z,7.10
2023-04-19T20:18:08.224Z,6.37
2023-04-19T20:20:36.430Z,6.30
2023-04-19T20:23:03.063Z,6.00
2023-04-19T20:28:04.683Z,6.97
2023-04-19T20:40:42.380Z,6.70
2023-04-19T20:48:08.552Z,6.60
2023-04-19T20:50:35.486Z,6.37
2023-04-19T20:53:02.066Z,5.40
2023-04-19T20:55:28.659Z,5.47
2023-04-19T20:57:55.465Z,5.70
2023-04-19T21:00:22.109Z,6.13
2023-04-19T21:02:49.402Z,6.27
2023-04-19T21:05:16.248Z,5.77
2023-04-19T21:07:42.831Z,5.47
2023-04-19T21:10:11.242Z,5.37
2023-04-19T21:12:37.931Z,5.40
2023-04-19T21:17:32.191Z,5.40
2023-04-19T21:19:58.789Z,5.10
2023-04-19T21:22:25.481Z,5.67
2023-04-19T21:24:52.064Z,5.63
2023-04-19T21:37:28.575Z,5.07
2023-04-19T21:57:38.923Z,5.30
2023-04-19T22:02:41.087Z,5.80
2023-04-19T22:05:08.192Z,5.77
2023-04-19T22:07:37.276Z,5.47
2023-04-19T22:10:04.413Z,5.13
2023-04-19T22:12:30.964Z,5.10
2023-04-19T22:14:57.803Z,6.03
2023-04-19T22:22:27.338Z,5.10
2023-04-19T22:27:25.567Z,5.73
2023-04-19T22:29:52.484Z,4.90
2023-04-19T22:39:53.618Z,4.90
2023-04-19T22:52:26.239Z,4.53
2023-04-19T22:54:52.828Z,4.80
2023-04-19T22:57:19.353Z,4.20
2023-04-19T22:59:45.877Z,5.17
2023-04-19T23:02:12.466Z,5.37
2023-04-19T23:04:39.149Z,4.10
2023-04-19T23:07:06.192Z,4.57
2023-04-19T23:12:05.274Z,4.77
2023-04-19T23:14:32.791Z,4.73
2023-04-19T23:19:32.010Z,4.67
2023-04-19T23:21:58.716Z,4.37
2023-04-19T23:24:25.283Z,4.50
2023-04-19T23:26:52.107Z,4.27
2023-04-19T23:29:18.839Z,4.20
2023-04-19T23:31:45.718Z,4.30
2023-04-19T23:34:13.805Z,4.33
2023-04-19T23:39:12.357Z,4.40
2023-04-19T23:41:38.972Z,4.40
2023-04-19T23:44:05.819Z,4.90
2023-04-19T23:46:32.428Z,4.20
2023-04-19T23:54:02.892Z,3.80
2023-04-19T23:59:00.993Z,4.07
